首页
METAR-TAF:

METAR-TAF

机场 :

Fourchambault

讷韦尔, 法国

纬度: 47-00N, 经度: 003-06E, 海拔: 180米

当前天气观测

该预报发布于1小时和29分钟前的18:00 UTC
风速5节,风向南转西南
温度 7°C
湿度 81%
气压 1029 hPa
能见度10公里或以上
散云层高于4300英尺
多云层高于22000英尺

METAR: LFQG 181800Z AUTO 21005KT 9999 SCT043 BKN220 07/04 Q1029

时间: 20:29 (19:29 UTC)


TAF: 丢失

超过4000个机场的气象观测和天气预报(METAR&TAF报告)。

可查询的气象台以黄色和红色小点在地图上表示。

将鼠标移到小点上方,可查看气象台名称。

然后点击查看天气观测和预报。

如需切换地图:点击带黑十字的绿色按钮放大地图;点击带横线的绿色按钮缩小地图;或者点击绿色箭头查看邻近地区的地图。


METAR-TAF: